Time;durP1;ratioP1;P1;durP2;ratioP2;P2;SDS_P1;SDS_P2;PMS_P1;PMS_P2;Temp;Humidity;BMP_temperature;BMP_pressure;BME280_temperature;BME280_humidity;BME280_pressure;Samples;Min_cycle;Max_cycle;Signal;HPM_P1;HPM_P2
2021/06/16 00:01:08;;;;;;;7.90;4.10;;;;;;;;;;5013662;28;20439;-70
2021/06/16 00:03:34;;;;;;;7.83;3.87;;;;;;;;;;5014494;28;20971;-69
2021/06/16 00:06:01;;;;;;;5.33;4.17;;;;;;;;;;5015187;28;20885;-69
2021/06/16 00:08:27;;;;;;;7.13;4.50;;;;;;;;;;5014110;28;20431;-69
2021/06/16 00:10:53;;;;;;;8.23;4.17;;;;;;;;;;5015398;28;20819;-69
2021/06/16 00:13:19;;;;;;;6.07;3.70;;;;;;;;;;5014475;28;20440;-69
2021/06/16 00:15:47;;;;;;;4.73;3.10;;;;;;;;;;5013025;28;20451;-69
2021/06/16 00:18:13;;;;;;;5.47;3.53;;;;;;;;;;5014399;28;20435;-69
2021/06/16 00:20:39;;;;;;;5.90;3.73;;;;;;;;;;5014948;28;20439;-70
2021/06/16 00:23:06;;;;;;;5.60;3.40;;;;;;;;;;5013713;28;20462;-69
2021/06/16 00:25:32;;;;;;;7.17;4.17;;;;;;;;;;5015262;28;20806;-69
2021/06/16 00:27:58;;;;;;;6.90;4.13;;;;;;;;;;5013703;28;20452;-70
2021/06/16 00:30:25;;;;;;;3.83;3.30;;;;;;;;;;5014893;28;20418;-69
2021/06/16 00:32:52;;;;;;;7.53;4.07;;;;;;;;;;5014022;28;21010;-69
2021/06/16 00:35:21;;;;;;;5.83;3.60;;;;;;;;;;5014880;28;20406;-69
2021/06/16 00:37:48;;;;;;;6.10;3.97;;;;;;;;;;5002899;28;20429;-69
2021/06/16 00:40:15;;;;;;;4.80;3.23;;;;;;;;;;4994078;28;20405;-69
2021/06/16 00:42:42;;;;;;;5.30;3.50;;;;;;;;;;5005333;28;20819;-69
2021/06/16 00:45:09;;;;;;;5.50;4.67;;;;;;;;;;5013489;28;20499;-69
2021/06/16 00:47:35;;;;;;;6.27;4.37;;;;;;;;;;5013638;28;20435;-69
2021/06/16 00:50:02;;;;;;;5.93;4.10;;;;;;;;;;5002701;28;20467;-69
2021/06/16 00:52:28;;;;;;;6.77;4.13;;;;;;;;;;4994794;28;20475;-69
2021/06/16 00:54:54;;;;;;;4.63;3.70;;;;;;;;;;4993557;28;20417;-69
2021/06/16 00:57:20;;;;;;;5.67;4.10;;;;;;;;;;5001610;28;20523;-69
2021/06/16 00:59:52;;;;;;;8.50;4.30;;;;;;;;;;5014292;28;20407;-68
2021/06/16 01:02:19;;;;;;;5.90;3.93;;;;;;;;;;5013420;28;20792;-68
2021/06/16 01:04:46;;;;;;;5.63;3.40;;;;;;;;;;5014445;28;20431;-68
2021/06/16 01:07:12;;;;;;;4.87;3.90;;;;;;;;;;5013153;28;20931;-69
2021/06/16 01:09:51;;;;;;;10.83;3.73;;;;;;;;;;5002100;28;20436;-69
2021/06/16 01:12:23;;;;;;;5.63;2.97;;;;;;;;;;4995517;28;20472;-69
2021/06/16 01:15:01;;;;;;;8.43;4.07;;;;;;;;;;5013889;28;20416;-68
2021/06/16 01:17:41;;;;;;;7.40;4.00;;;;;;;;;;5012879;28;20462;-68
2021/06/16 01:20:13;;;;;;;5.10;3.90;;;;;;;;;;5013921;28;20400;-68
2021/06/16 01:22:45;;;;;;;4.70;4.20;;;;;;;;;;5012992;28;20443;-68
2021/06/16 01:25:30;;;;;;;6.47;3.70;;;;;;;;;;5013827;28;20480;-68
2021/06/16 01:27:57;;;;;;;7.37;4.17;;;;;;;;;;5013049;28;20441;-69
2021/06/16 01:30:24;;;;;;;5.83;3.57;;;;;;;;;;5013906;28;20486;-68
2021/06/16 01:32:50;;;;;;;5.77;3.83;;;;;;;;;;5012533;28;20952;-68
2021/06/16 01:35:16;;;;;;;6.50;3.77;;;;;;;;;;5013554;28;20454;-68
2021/06/16 01:37:42;;;;;;;4.40;3.93;;;;;;;;;;5004397;28;20861;-68
2021/06/16 01:40:11;;;;;;;6.07;4.30;;;;;;;;;;4994049;28;20432;-68
2021/06/16 01:42:39;;;;;;;8.50;4.93;;;;;;;;;;5000937;28;20454;-69
2021/06/16 01:45:05;;;;;;;5.77;3.90;;;;;;;;;;5013396;28;20396;-69
2021/06/16 01:47:31;;;;;;;7.47;4.00;;;;;;;;;;5012331;28;20459;-69
2021/06/16 01:49:59;;;;;;;9.80;3.77;;;;;;;;;;5013432;28;20411;-69
2021/06/16 01:52:25;;;;;;;6.07;4.43;;;;;;;;;;5007451;28;20478;-69
2021/06/16 01:54:52;;;;;;;4.00;3.13;;;;;;;;;;5002632;28;20865;-69
2021/06/16 01:57:18;;;;;;;6.20;4.00;;;;;;;;;;5005138;28;20880;-69
2021/06/16 01:59:46;;;;;;;5.80;4.07;;;;;;;;;;5013172;28;20415;-69
2021/06/16 02:02:12;;;;;;;4.57;3.80;;;;;;;;;;5007696;28;20467;-69
2021/06/16 02:04:38;;;;;;;8.63;3.90;;;;;;;;;;4992248;28;20444;-69
2021/06/16 02:07:07;;;;;;;4.23;3.47;;;;;;;;;;4993340;28;20511;-68
2021/06/16 02:09:34;;;;;;;3.53;2.90;;;;;;;;;;4993883;28;20437;-68
2021/06/16 02:12:00;;;;;;;5.27;4.10;;;;;;;;;;4993407;28;20460;-68
2021/06/16 02:14:28;;;;;;;6.50;4.20;;;;;;;;;;4993547;28;20420;-68
2021/06/16 02:16:58;;;;;;;5.90;4.00;;;;;;;;;;4993752;28;20546;-68
2021/06/16 02:19:28;;;;;;;9.10;3.60;;;;;;;;;;5008739;28;20443;-68
2021/06/16 02:21:55;;;;;;;6.67;5.03;;;;;;;;;;5012843;28;20936;-68
2021/06/16 02:24:22;;;;;;;4.97;3.57;;;;;;;;;;5014897;28;20459;-69
2021/06/16 02:26:48;;;;;;;5.10;3.73;;;;;;;;;;5017033;28;20408;-69
2021/06/16 02:29:14;;;;;;;4.40;3.43;;;;;;;;;;5016044;28;20966;-69
2021/06/16 02:31:41;;;;;;;5.27;3.87;;;;;;;;;;5015025;28;20976;-69
2021/06/16 02:34:07;;;;;;;4.80;4.30;;;;;;;;;;5016339;28;20432;-69
2021/06/16 02:36:35;;;;;;;7.60;3.80;;;;;;;;;;5016983;28;20399;-69
2021/06/16 02:39:03;;;;;;;3.70;3.10;;;;;;;;;;5015885;28;20481;-69
2021/06/16 02:41:30;;;;;;;7.87;5.40;;;;;;;;;;5016788;28;20507;-69
2021/06/16 02:43:56;;;;;;;7.83;4.97;;;;;;;;;;5005229;28;20425;-69
2021/06/16 02:46:22;;;;;;;5.83;3.53;;;;;;;;;;4997036;28;20408;-69
2021/06/16 02:48:50;;;;;;;6.70;3.93;;;;;;;;;;5006475;28;20431;-69
2021/06/16 02:51:16;;;;;;;10.83;3.60;;;;;;;;;;5016375;28;20509;-69
2021/06/16 02:53:43;;;;;;;5.37;4.27;;;;;;;;;;5015614;28;20439;-69
2021/06/16 02:56:10;;;;;;;6.60;3.73;;;;;;;;;;5016595;28;20403;-69
2021/06/16 02:58:39;;;;;;;4.73;3.57;;;;;;;;;;5009683;28;20423;-69
2021/06/16 03:01:06;;;;;;;9.40;3.90;;;;;;;;;;5016520;28;20400;-69
2021/06/16 03:03:32;;;;;;;4.87;3.60;;;;;;;;;;5015508;28;20526;-69
2021/06/16 03:06:00;;;;;;;5.20;3.93;;;;;;;;;;5003094;28;20439;-69
2021/06/16 03:08:27;;;;;;;10.20;3.90;;;;;;;;;;5002205;28;20924;-69
2021/06/16 03:10:54;;;;;;;5.90;4.00;;;;;;;;;;5015195;28;20486;-69
2021/06/16 03:13:20;;;;;;;5.63;3.80;;;;;;;;;;5011360;28;20809;-69
2021/06/16 03:15:47;;;;;;;5.93;3.80;;;;;;;;;;4997226;28;20408;-69
2021/06/16 03:18:14;;;;;;;6.70;3.60;;;;;;;;;;4997040;28;20734;-69
2021/06/16 03:20:41;;;;;;;6.70;3.73;;;;;;;;;;4996560;28;20408;-69
2021/06/16 03:23:08;;;;;;;5.17;3.60;;;;;;;;;;4998752;28;20454;-70
2021/06/16 03:25:34;;;;;;;4.50;3.37;;;;;;;;;;5016036;28;20876;-70
2021/06/16 03:28:03;;;;;;;7.93;3.67;;;;;;;;;;5015121;28;20431;-69
2021/06/16 03:30:30;;;;;;;6.50;3.80;;;;;;;;;;5015848;28;20888;-69
2021/06/16 03:32:56;;;;;;;4.20;3.17;;;;;;;;;;5011419;28;20827;-69
2021/06/16 03:35:22;;;;;;;7.37;3.50;;;;;;;;;;5015750;28;20873;-69
2021/06/16 03:37:49;;;;;;;7.00;3.40;;;;;;;;;;5015868;28;20396;-69
2021/06/16 03:40:16;;;;;;;4.73;3.00;;;;;;;;;;5015308;28;20791;-68
2021/06/16 03:42:42;;;;;;;5.87;3.33;;;;;;;;;;5016145;28;20412;-68
2021/06/16 03:45:09;;;;;;;4.53;3.40;;;;;;;;;;4997212;28;20425;-68
2021/06/16 03:47:37;;;;;;;6.23;2.97;;;;;;;;;;4996488;28;20401;-69
2021/06/16 03:50:04;;;;;;;5.33;3.80;;;;;;;;;;5012949;28;20439;-69
2021/06/16 03:52:31;;;;;;;6.90;3.47;;;;;;;;;;5017325;28;20464;-69
2021/06/16 03:54:57;;;;;;;5.37;3.53;;;;;;;;;;5002574;28;20937;-69
2021/06/16 03:57:23;;;;;;;5.93;3.30;;;;;;;;;;4999150;28;20401;-69
2021/06/16 03:59:50;;;;;;;6.67;3.63;;;;;;;;;;4999236;28;20520;-69
2021/06/16 04:02:19;;;;;;;4.60;3.17;;;;;;;;;;5001051;28;20432;-69
2021/06/16 04:04:46;;;;;;;6.90;4.30;;;;;;;;;;5018128;28;20427;-69
2021/06/16 04:07:19;;;;;;;11.43;3.93;;;;;;;;;;5018955;28;20535;-69
2021/06/16 04:09:48;;;;;;;5.80;3.80;;;;;;;;;;5004175;28;20448;-68
2021/06/16 04:12:14;;;;;;;8.90;4.10;;;;;;;;;;5000177;28;20880;-69
2021/06/16 04:14:41;;;;;;;4.53;3.30;;;;;;;;;;5001969;28;20432;-68
2021/06/16 04:17:07;;;;;;;6.87;3.67;;;;;;;;;;4995700;28;20484;-68
2021/06/16 04:19:33;;;;;;;6.50;4.50;;;;;;;;;;4995908;28;20521;-68
2021/06/16 04:21:59;;;;;;;5.00;3.90;;;;;;;;;;4995879;28;20483;-69
2021/06/16 04:24:25;;;;;;;5.70;3.60;;;;;;;;;;5006038;28;20484;-69
2021/06/16 04:26:51;;;;;;;6.13;3.23;;;;;;;;;;5015710;28;20444;-69
2021/06/16 04:29:17;;;;;;;4.80;3.20;;;;;;;;;;5005419;28;20436;-68
2021/06/16 04:31:43;;;;;;;5.10;3.27;;;;;;;;;;4995505;28;20468;-68
2021/06/16 04:34:09;;;;;;;6.17;3.40;;;;;;;;;;5002793;28;20431;-68
2021/06/16 04:36:35;;;;;;;4.97;3.10;;;;;;;;;;5015068;28;20761;-68
2021/06/16 04:39:01;;;;;;;4.87;3.50;;;;;;;;;;5013884;28;20431;-68
2021/06/16 04:41:27;;;;;;;4.27;3.60;;;;;;;;;;5014793;28;20403;-69
2021/06/16 04:43:53;;;;;;;9.77;3.83;;;;;;;;;;5013827;28;20520;-69
2021/06/16 04:46:19;;;;;;;8.20;3.37;;;;;;;;;;5012344;28;20428;-69
2021/06/16 04:48:45;;;;;;;7.03;3.33;;;;;;;;;;5013477;28;20432;-69
2021/06/16 04:51:11;;;;;;;5.17;3.50;;;;;;;;;;5014118;28;20474;-69
2021/06/16 04:53:37;;;;;;;7.33;3.43;;;;;;;;;;5013563;28;20438;-69
2021/06/16 04:56:04;;;;;;;5.17;3.27;;;;;;;;;;5014473;28;20868;-69
2021/06/16 04:58:30;;;;;;;3.37;2.87;;;;;;;;;;5005229;28;20479;-69
2021/06/16 05:00:56;;;;;;;5.40;4.20;;;;;;;;;;4994609;28;20427;-68
2021/06/16 05:03:22;;;;;;;8.67;4.23;;;;;;;;;;5002232;28;20454;-68
2021/06/16 05:05:48;;;;;;;7.00;3.33;;;;;;;;;;5014363;28;20764;-68
2021/06/16 05:08:14;;;;;;;15.90;3.70;;;;;;;;;;5013373;28;20432;-68
2021/06/16 05:10:40;;;;;;;7.40;3.93;;;;;;;;;;5014354;28;20439;-68
2021/06/16 05:13:06;;;;;;;4.93;3.07;;;;;;;;;;5008482;28;20460;-68
2021/06/16 05:15:32;;;;;;;5.70;3.93;;;;;;;;;;4994530;28;20456;-68
2021/06/16 05:17:58;;;;;;;6.50;3.70;;;;;;;;;;4994125;28;20460;-69
2021/06/16 05:20:25;;;;;;;6.83;3.60;;;;;;;;;;4994309;28;20964;-69
2021/06/16 05:22:51;;;;;;;4.20;2.87;;;;;;;;;;4996043;28;20447;-69
2021/06/16 05:25:17;;;;;;;5.97;3.53;;;;;;;;;;5013722;28;20454;-69
2021/06/16 05:27:44;;;;;;;5.23;3.53;;;;;;;;;;5012685;28;20416;-69
2021/06/16 05:30:10;;;;;;;5.73;3.40;;;;;;;;;;5013844;28;20954;-69
2021/06/16 05:32:37;;;;;;;6.03;3.50;;;;;;;;;;5012839;28;20483;-69
2021/06/16 05:35:03;;;;;;;5.60;3.70;;;;;;;;;;4992749;28;20463;-69
2021/06/16 05:37:30;;;;;;;5.37;3.60;;;;;;;;;;4993926;28;20968;-69
2021/06/16 05:39:56;;;;;;;7.83;3.87;;;;;;;;;;5012765;28;20435;-69
2021/06/16 05:42:22;;;;;;;5.47;3.73;;;;;;;;;;5013568;28;20426;-69
2021/06/16 05:44:48;;;;;;;7.77;3.43;;;;;;;;;;4995268;28;20424;-68
2021/06/16 05:47:14;;;;;;;4.67;3.30;;;;;;;;;;4993811;28;20970;-68
2021/06/16 05:49:40;;;;;;;5.37;4.00;;;;;;;;;;5009900;28;20455;-68
2021/06/16 05:52:06;;;;;;;6.10;3.27;;;;;;;;;;5013074;28;20502;-69
2021/06/16 05:54:32;;;;;;;3.93;2.90;;;;;;;;;;5000648;28;20424;-69
2021/06/16 05:56:58;;;;;;;4.87;2.90;;;;;;;;;;4993576;28;20539;-70
2021/06/16 05:59:25;;;;;;;5.20;3.90;;;;;;;;;;4993082;28;20428;-70
2021/06/16 06:01:51;;;;;;;6.10;3.67;;;;;;;;;;4993986;28;20436;-69
2021/06/16 06:04:17;;;;;;;5.20;3.80;;;;;;;;;;5006210;28;20436;-69
2021/06/16 06:06:43;;;;;;;5.13;3.40;;;;;;;;;;5013364;28;20404;-69
2021/06/16 06:09:09;;;;;;;5.73;3.00;;;;;;;;;;5001678;28;20433;-69
2021/06/16 06:11:36;;;;;;;6.23;3.33;;;;;;;;;;4993819;28;20495;-69
2021/06/16 06:14:03;;;;;;;8.47;3.87;;;;;;;;;;5003651;28;20508;-69
2021/06/16 06:16:29;;;;;;;4.90;3.03;;;;;;;;;;5013508;28;20419;-69
2021/06/16 06:18:55;;;;;;;4.83;4.13;;;;;;;;;;5012344;28;20463;-70
2021/06/16 06:21:21;;;;;;;8.20;4.27;;;;;;;;;;5013091;28;20395;-69
2021/06/16 06:23:47;;;;;;;6.50;4.27;;;;;;;;;;5004756;28;20439;-69
2021/06/16 06:26:13;;;;;;;11.07;4.50;;;;;;;;;;4993502;28;20858;-69
2021/06/16 06:28:41;;;;;;;6.33;3.43;;;;;;;;;;5004950;28;20419;-70
2021/06/16 06:31:07;;;;;;;6.63;3.40;;;;;;;;;;5013229;28;20449;-69
2021/06/16 06:33:33;;;;;;;6.67;4.00;;;;;;;;;;5012077;28;20439;-69
2021/06/16 06:35:59;;;;;;;6.10;3.50;;;;;;;;;;5013098;28;20881;-70
2021/06/16 06:38:25;;;;;;;6.40;3.60;;;;;;;;;;5008640;28;20837;-70
2021/06/16 06:40:51;;;;;;;7.47;3.43;;;;;;;;;;4993859;28;20495;-70
2021/06/16 06:43:17;;;;;;;5.53;3.90;;;;;;;;;;4993394;28;20990;-70
2021/06/16 06:45:44;;;;;;;7.90;3.80;;;;;;;;;;4993835;28;20428;-70
2021/06/16 06:48:11;;;;;;;8.43;4.27;;;;;;;;;;5004246;28;20427;-70
2021/06/16 06:50:37;;;;;;;12.83;4.17;;;;;;;;;;5009253;28;20432;-70
2021/06/16 06:53:03;;;;;;;15.03;4.67;;;;;;;;;;5009191;28;20505;-70
2021/06/16 06:55:29;;;;;;;5.67;3.13;;;;;;;;;;5007045;28;20440;-69
2021/06/16 06:57:55;;;;;;;5.30;3.30;;;;;;;;;;5005481;28;20418;-69
2021/06/16 07:00:21;;;;;;;6.43;3.10;;;;;;;;;;5008280;28;20428;-69
2021/06/16 07:02:47;;;;;;;4.93;3.17;;;;;;;;;;5008114;28;20473;-69
2021/06/16 07:05:14;;;;;;;8.93;3.03;;;;;;;;;;5009408;28;20831;-64
2021/06/16 07:07:40;;;;;;;12.53;4.33;;;;;;;;;;5008472;28;20428;-64
2021/06/16 07:10:06;;;;;;;7.13;3.07;;;;;;;;;;5010973;28;20466;-64
2021/06/16 07:12:32;;;;;;;8.20;4.67;;;;;;;;;;5009080;28;20475;-64
2021/06/16 07:14:59;;;;;;;5.40;2.63;;;;;;;;;;5012118;28;20423;-64
2021/06/16 07:17:25;;;;;;;4.13;2.73;;;;;;;;;;5014792;28;20415;-64
2021/06/16 07:19:51;;;;;;;9.03;4.83;;;;;;;;;;5014124;28;20932;-64
2021/06/16 07:22:17;;;;;;;10.23;3.30;;;;;;;;;;5014926;28;20474;-64
2021/06/16 07:24:43;;;;;;;5.57;3.10;;;;;;;;;;5012910;28;20435;-64
2021/06/16 07:27:10;;;;;;;7.67;3.10;;;;;;;;;;5009143;28;20530;-69
2021/06/16 07:29:36;;;;;;;11.67;3.50;;;;;;;;;;5014089;28;20943;-68
2021/06/16 07:32:02;;;;;;;9.70;3.07;;;;;;;;;;5012004;28;20486;-69
2021/06/16 07:34:28;;;;;;;8.73;3.60;;;;;;;;;;5015076;28;20430;-69
2021/06/16 07:36:54;;;;;;;6.77;3.87;;;;;;;;;;5014834;28;20423;-70
2021/06/16 07:39:21;;;;;;;4.63;2.90;;;;;;;;;;5014125;28;20784;-70
2021/06/16 07:41:47;;;;;;;6.93;3.30;;;;;;;;;;5015630;28;20482;-70
2021/06/16 07:44:13;;;;;;;4.17;3.10;;;;;;;;;;5012453;28;20977;-70
2021/06/16 07:46:39;;;;;;;4.63;2.37;;;;;;;;;;5024334;28;20498;-70
2021/06/16 07:49:05;;;;;;;9.93;2.50;;;;;;;;;;5013832;28;20524;-69
2021/06/16 07:51:32;;;;;;;4.70;3.00;;;;;;;;;;5014127;28;20471;-69
2021/06/16 07:54:01;;;;;;;10.33;2.73;;;;;;;;;;5012662;28;20458;-70
2021/06/16 07:56:27;;;;;;;4.97;2.80;;;;;;;;;;5013006;28;20425;-66
2021/06/16 07:58:53;;;;;;;4.13;2.17;;;;;;;;;;5013760;28;20427;-66
2021/06/16 08:01:19;;;;;;;3.40;2.40;;;;;;;;;;5013383;28;20515;-70
2021/06/16 08:03:45;;;;;;;4.80;2.53;;;;;;;;;;5014711;28;20477;-65
2021/06/16 08:06:11;;;;;;;8.63;3.07;;;;;;;;;;5007654;28;20431;-65
2021/06/16 08:08:38;;;;;;;6.60;2.30;;;;;;;;;;5014326;28;20843;-65
2021/06/16 08:11:04;;;;;;;3.87;2.50;;;;;;;;;;5014672;28;20550;-71
2021/06/16 08:13:30;;;;;;;5.87;2.90;;;;;;;;;;5011349;28;20570;-74
2021/06/16 08:15:56;;;;;;;8.13;3.33;;;;;;;;;;5019094;28;20435;-73
2021/06/16 08:18:23;;;;;;;5.07;2.23;;;;;;;;;;5010352;28;20431;-70
2021/06/16 08:20:49;;;;;;;3.57;2.90;;;;;;;;;;5000673;28;20514;-75
2021/06/16 08:23:15;;;;;;;7.07;2.60;;;;;;;;;;5021283;28;20490;-71
2021/06/16 08:25:41;;;;;;;5.33;2.83;;;;;;;;;;5014854;28;20452;-71
2021/06/16 08:28:07;;;;;;;4.03;2.83;;;;;;;;;;5014115;28;20446;-71
2021/06/16 08:30:34;;;;;;;3.07;2.00;;;;;;;;;;5011125;28;20427;-70
2021/06/16 08:33:00;;;;;;;8.20;3.00;;;;;;;;;;5017385;28;20477;-72
2021/06/16 08:35:26;;;;;;;5.83;2.83;;;;;;;;;;5013817;28;20513;-71
2021/06/16 08:37:52;;;;;;;5.90;2.50;;;;;;;;;;5009214;28;20455;-71
2021/06/16 08:40:18;;;;;;;3.90;2.20;;;;;;;;;;5004187;28;20475;-72
2021/06/16 08:42:46;;;;;;;4.53;2.67;;;;;;;;;;5010673;28;20475;-75
2021/06/16 08:45:12;;;;;;;3.60;2.40;;;;;;;;;;5010735;28;20423;-71
2021/06/16 08:47:39;;;;;;;4.27;2.50;;;;;;;;;;5002579;28;20470;-74
2021/06/16 08:50:06;;;;;;;2.67;1.93;;;;;;;;;;5012039;28;20426;-74
2021/06/16 08:52:32;;;;;;;3.43;2.60;;;;;;;;;;5012547;28;20460;-77
2021/06/16 08:54:58;;;;;;;3.77;2.33;;;;;;;;;;5011921;28;20430;-70
2021/06/16 08:57:24;;;;;;;4.13;2.70;;;;;;;;;;5012216;28;20423;-71
2021/06/16 08:59:50;;;;;;;3.50;2.23;;;;;;;;;;5009128;28;20511;-70
2021/06/16 09:02:17;;;;;;;5.97;2.70;;;;;;;;;;5005045;28;20486;-69
2021/06/16 09:04:45;;;;;;;6.40;3.10;;;;;;;;;;5011513;28;20465;-70
2021/06/16 09:07:15;;;;;;;3.97;2.50;;;;;;;;;;5012912;28;20433;-71
2021/06/16 09:09:41;;;;;;;3.80;2.30;;;;;;;;;;5010981;28;20443;-73
2021/06/16 09:12:09;;;;;;;7.30;2.60;;;;;;;;;;5008752;28;20517;-72
2021/06/16 09:14:35;;;;;;;3.60;2.50;;;;;;;;;;5007152;28;20446;-69
2021/06/16 09:17:03;;;;;;;6.13;3.00;;;;;;;;;;5015055;28;20539;-72
2021/06/16 09:19:30;;;;;;;3.50;2.30;;;;;;;;;;5013154;28;20966;-71
2021/06/16 09:21:59;;;;;;;3.53;2.13;;;;;;;;;;5010108;28;20459;-71
2021/06/16 09:24:39;;;;;;;5.27;2.50;;;;;;;;;;5012895;28;20422;-76
2021/06/16 09:27:05;;;;;;;4.53;2.27;;;;;;;;;;5010204;28;20531;-73
2021/06/16 09:29:31;;;;;;;4.17;2.77;;;;;;;;;;5009449;28;20955;-71
2021/06/16 09:32:04;;;;;;;5.57;2.60;;;;;;;;;;5010231;28;20475;-71
2021/06/16 09:34:31;;;;;;;3.87;2.63;;;;;;;;;;5009633;28;20412;-71
2021/06/16 09:36:59;;;;;;;5.80;3.00;;;;;;;;;;5010014;28;20427;-71
2021/06/16 09:39:26;;;;;;;4.73;2.73;;;;;;;;;;5011250;28;20415;-69
2021/06/16 09:42:00;;;;;;;5.00;2.10;;;;;;;;;;5011145;28;20452;-74
2021/06/16 09:44:42;;;;;;;4.80;2.50;;;;;;;;;;5003577;28;20431;-73
2021/06/16 09:47:21;;;;;;;4.50;2.23;;;;;;;;;;5005962;28;20937;-73
2021/06/16 09:49:47;;;;;;;3.87;2.40;;;;;;;;;;5010674;28;21807;-72
2021/06/16 09:52:31;;;;;;;3.23;2.40;;;;;;;;;;5012903;28;21030;-72
2021/06/16 09:54:57;;;;;;;3.70;2.40;;;;;;;;;;5007685;28;20447;-74
2021/06/16 09:57:23;;;;;;;3.23;2.27;;;;;;;;;;5015017;28;20422;-73
2021/06/16 09:59:49;;;;;;;3.80;2.40;;;;;;;;;;5012229;28;20900;-76
2021/06/16 10:02:17;;;;;;;3.20;1.67;;;;;;;;;;5012175;28;20448;-71
2021/06/16 10:04:45;;;;;;;2.70;1.93;;;;;;;;;;5011491;28;20446;-73
2021/06/16 10:07:22;;;;;;;5.30;2.40;;;;;;;;;;5009218;28;20495;-72
2021/06/16 10:09:48;;;;;;;2.93;1.90;;;;;;;;;;5010637;28;20521;-72
2021/06/16 10:12:15;;;;;;;4.30;1.90;;;;;;;;;;5011659;28;20475;-69
2021/06/16 10:14:41;;;;;;;3.30;2.33;;;;;;;;;;5009583;28;20908;-74
2021/06/16 10:17:07;;;;;;;3.73;2.33;;;;;;;;;;5011527;28;20451;-70
2021/06/16 10:19:37;;;;;;;4.40;2.10;;;;;;;;;;5012949;28;20408;-69
2021/06/16 10:22:04;;;;;;;3.33;2.30;;;;;;;;;;5008695;28;20590;-73
2021/06/16 10:24:30;;;;;;;3.27;2.17;;;;;;;;;;5009408;28;20431;-68
2021/06/16 10:26:57;;;;;;;3.00;2.00;;;;;;;;;;5010405;28;20431;-67
2021/06/16 10:29:27;;;;;;;4.17;2.37;;;;;;;;;;5007735;28;20482;-67
2021/06/16 10:31:53;;;;;;;6.57;2.40;;;;;;;;;;5010827;28;20467;-68
2021/06/16 10:34:19;;;;;;;5.07;2.50;;;;;;;;;;5009276;28;20932;-68
2021/06/16 10:37:18;;;;;;;3.87;2.70;;;;;;;;;;5008064;28;20789;-67
2021/06/16 10:39:44;;;;;;;5.60;2.83;;;;;;;;;;4978366;28;20442;-68
2021/06/16 10:42:10;;;;;;;4.00;2.70;;;;;;;;;;5012452;28;20513;-67
2021/06/16 10:44:36;;;;;;;4.13;2.50;;;;;;;;;;5013419;28;20412;-67
2021/06/16 10:47:09;;;;;;;5.53;2.20;;;;;;;;;;5013924;28;20434;-67
2021/06/16 10:49:42;;;;;;;3.17;2.43;;;;;;;;;;5015517;28;20410;-67
2021/06/16 10:52:09;;;;;;;3.17;2.13;;;;;;;;;;5014275;28;20474;-66
2021/06/16 10:54:35;;;;;;;4.03;3.00;;;;;;;;;;5015325;28;20743;-68
2021/06/16 10:57:05;;;;;;;4.20;2.33;;;;;;;;;;5011322;28;20416;-67
2021/06/16 10:59:40;;;;;;;5.13;2.83;;;;;;;;;;5011764;28;20430;-67
2021/06/16 11:02:06;;;;;;;2.70;1.90;;;;;;;;;;5013331;28;20473;-67
2021/06/16 11:04:32;;;;;;;3.60;2.00;;;;;;;;;;5014578;28;20454;-67
2021/06/16 11:06:59;;;;;;;2.97;2.17;;;;;;;;;;5014421;28;20508;-69
2021/06/16 11:09:44;;;;;;;3.70;1.93;;;;;;;;;;5016824;28;20576;-67
2021/06/16 11:12:10;;;;;;;3.33;1.80;;;;;;;;;;5013546;28;20998;-67
2021/06/16 11:14:36;;;;;;;3.00;1.80;;;;;;;;;;5015633;28;20431;-66
2021/06/16 11:17:03;;;;;;;2.37;1.60;;;;;;;;;;5009233;28;20428;-68
2021/06/16 11:19:35;;;;;;;4.13;2.07;;;;;;;;;;5014106;28;20416;-67
2021/06/16 11:22:04;;;;;;;3.53;2.00;;;;;;;;;;5014047;28;20498;-68
2021/06/16 11:24:49;;;;;;;3.30;1.97;;;;;;;;;;5014196;28;20427;-67
2021/06/16 11:27:35;;;;;;;3.83;2.47;;;;;;;;;;5012121;28;20519;-67
2021/06/16 11:30:10;;;;;;;2.80;1.50;;;;;;;;;;5013308;28;20423;-68
2021/06/16 11:32:36;;;;;;;2.40;1.73;;;;;;;;;;5013301;28;20488;-68
2021/06/16 11:35:02;;;;;;;3.20;1.97;;;;;;;;;;5015371;28;20423;-69
2021/06/16 11:37:47;;;;;;;3.23;1.70;;;;;;;;;;5014463;28;20459;-68
2021/06/16 11:40:13;;;;;;;5.03;1.87;;;;;;;;;;5013150;28;20530;-68
2021/06/16 11:42:42;;;;;;;2.93;1.77;;;;;;;;;;5014418;28;20451;-68
2021/06/16 11:45:08;;;;;;;2.80;1.80;;;;;;;;;;5013895;28;20423;-69
2021/06/16 11:47:34;;;;;;;2.80;1.90;;;;;;;;;;5011098;28;20530;-68
2021/06/16 11:50:00;;;;;;;5.20;1.60;;;;;;;;;;5013791;28;20958;-68
2021/06/16 11:52:27;;;;;;;3.10;2.23;;;;;;;;;;5013419;28;20566;-66
2021/06/16 11:54:53;;;;;;;3.13;1.70;;;;;;;;;;5015066;28;20810;-67
2021/06/16 11:57:19;;;;;;;3.27;1.67;;;;;;;;;;5012687;28;20427;-67
2021/06/16 11:59:51;;;;;;;3.57;1.90;;;;;;;;;;5013146;28;20992;-67
2021/06/16 12:02:25;;;;;;;3.23;1.97;;;;;;;;;;5007942;28;20452;-69
2021/06/16 12:05:08;;;;;;;3.40;2.00;;;;;;;;;;5005505;28;20829;-67
2021/06/16 12:07:39;;;;;;;4.40;1.83;;;;;;;;;;5017600;28;20238;-68
2021/06/16 12:10:07;;;;;;;3.63;2.53;;;;;;;;;;5012005;28;20813;-75
2021/06/16 12:12:51;;;;;;;4.83;2.23;;;;;;;;;;5014618;28;20835;-73
2021/06/16 12:15:27;;;;;;;3.83;2.23;;;;;;;;;;5009222;28;20454;-72
2021/06/16 12:17:58;;;;;;;3.67;2.30;;;;;;;;;;5011800;28;20418;-74
2021/06/16 12:20:24;;;;;;;4.40;1.80;;;;;;;;;;5009689;28;20453;-74
2021/06/16 12:22:51;;;;;;;7.10;2.70;;;;;;;;;;5011289;28;20439;-72
2021/06/16 12:25:27;;;;;;;3.23;2.20;;;;;;;;;;5013462;28;20427;-76
2021/06/16 12:27:57;;;;;;;2.90;2.10;;;;;;;;;;5009424;28;20888;-75
2021/06/16 12:30:33;;;;;;;3.13;2.23;;;;;;;;;;5012872;28;20443;-73
2021/06/16 12:33:19;;;;;;;5.13;2.57;;;;;;;;;;5009127;28;20489;-74
2021/06/16 12:35:56;;;;;;;3.20;2.00;;;;;;;;;;5005029;28;20423;-73
2021/06/16 12:38:34;;;;;;;4.03;1.70;;;;;;;;;;5012654;28;20486;-73
2021/06/16 12:41:00;;;;;;;3.50;2.23;;;;;;;;;;5010933;28;20554;-73
2021/06/16 12:43:28;;;;;;;2.63;1.77;;;;;;;;;;5012598;28;20448;-73
2021/06/16 12:45:57;;;;;;;3.77;1.77;;;;;;;;;;5006673;28;20427;-71
2021/06/16 12:48:28;;;;;;;3.37;2.00;;;;;;;;;;5002431;28;20447;-73
2021/06/16 12:50:59;;;;;;;3.37;1.97;;;;;;;;;;5011048;28;20964;-73
2021/06/16 12:53:26;;;;;;;5.03;3.20;;;;;;;;;;5002778;28;20459;-76
2021/06/16 12:55:53;;;;;;;3.00;1.87;;;;;;;;;;5012284;28;20489;-75
2021/06/16 12:58:23;;;;;;;3.17;1.73;;;;;;;;;;5010057;28;20419;-70
2021/06/16 13:00:53;;;;;;;4.60;2.40;;;;;;;;;;5009740;28;20951;-70
2021/06/16 13:03:25;;;;;;;2.77;1.83;;;;;;;;;;5008757;28;20431;-71
2021/06/16 13:06:01;;;;;;;4.13;2.10;;;;;;;;;;5010618;28;20434;-72
2021/06/16 13:08:34;;;;;;;3.50;1.90;;;;;;;;;;5009826;28;20482;-75
2021/06/16 13:11:00;;;;;;;3.73;2.20;;;;;;;;;;5009954;28;20972;-73
2021/06/16 13:13:29;;;;;;;3.67;1.90;;;;;;;;;;5007529;28;20493;-75
2021/06/16 13:15:55;;;;;;;3.17;1.73;;;;;;;;;;5012559;28;20987;-73
2021/06/16 13:18:21;;;;;;;3.63;2.13;;;;;;;;;;5010686;28;20423;-75
2021/06/16 13:20:58;;;;;;;3.90;1.87;;;;;;;;;;5013595;28;20508;-72
2021/06/16 13:23:24;;;;;;;4.07;1.87;;;;;;;;;;5010205;28;20442;-73
2021/06/16 13:25:58;;;;;;;5.30;1.50;;;;;;;;;;5017088;28;20428;-74
2021/06/16 13:28:35;;;;;;;2.77;1.50;;;;;;;;;;5012144;28;21593;-71
2021/06/16 13:31:02;;;;;;;9.50;1.93;;;;;;;;;;5015663;28;20479;-73
2021/06/16 13:33:30;;;;;;;5.00;1.90;;;;;;;;;;5011048;28;20563;-73
2021/06/16 13:35:56;;;;;;;3.93;2.13;;;;;;;;;;5012509;28;20428;-73
2021/06/16 13:38:23;;;;;;;3.77;1.93;;;;;;;;;;5006334;28;20518;-73
2021/06/16 13:40:49;;;;;;;3.90;1.80;;;;;;;;;;5008408;28;20807;-74
2021/06/16 13:43:15;;;;;;;4.30;1.60;;;;;;;;;;5009128;28;20443;-72
2021/06/16 13:45:41;;;;;;;4.47;1.93;;;;;;;;;;5014772;28;20530;-71
2021/06/16 13:48:07;;;;;;;2.30;1.60;;;;;;;;;;5009535;28;20423;-72
2021/06/16 13:50:33;;;;;;;3.03;2.10;;;;;;;;;;5014119;28;20422;-68
2021/06/16 13:52:59;;;;;;;4.43;2.03;;;;;;;;;;5015045;28;20483;-68
2021/06/16 13:55:25;;;;;;;6.00;1.90;;;;;;;;;;5016415;28;20412;-74
2021/06/16 13:57:51;;;;;;;2.90;1.73;;;;;;;;;;5012487;28;20913;-70
2021/06/16 14:00:18;;;;;;;4.13;1.60;;;;;;;;;;5015260;28;20522;-70
2021/06/16 14:02:44;;;;;;;9.80;1.90;;;;;;;;;;5010839;28;20812;-74
2021/06/16 14:05:11;;;;;;;4.03;1.77;;;;;;;;;;5006909;28;20454;-71
2021/06/16 14:07:37;;;;;;;2.77;1.73;;;;;;;;;;5020760;28;20920;-72
2021/06/16 14:10:05;;;;;;;3.03;1.93;;;;;;;;;;5012464;28;20435;-72
2021/06/16 14:12:31;;;;;;;5.93;1.77;;;;;;;;;;5011142;28;20566;-74
2021/06/16 14:14:57;;;;;;;3.00;1.90;;;;;;;;;;5011176;28;20415;-72
2021/06/16 14:17:23;;;;;;;2.10;1.27;;;;;;;;;;5006146;28;20423;-73
2021/06/16 14:19:49;;;;;;;2.97;1.60;;;;;;;;;;5009050;28;20473;-70
2021/06/16 14:22:15;;;;;;;3.00;2.03;;;;;;;;;;5009935;28;20447;-71
2021/06/16 14:24:41;;;;;;;3.20;1.90;;;;;;;;;;5010845;28;20784;-71
2021/06/16 14:27:08;;;;;;;3.73;1.80;;;;;;;;;;5008399;28;20431;-73
2021/06/16 14:29:34;;;;;;;5.10;1.50;;;;;;;;;;4984361;28;20436;-69
2021/06/16 14:32:00;;;;;;;4.40;1.97;;;;;;;;;;5005271;28;20466;-70
2021/06/16 14:34:26;;;;;;;2.10;1.30;;;;;;;;;;5004204;28;20424;-71
2021/06/16 14:36:52;;;;;;;5.87;1.70;;;;;;;;;;5008503;28;20423;-72
2021/06/16 14:39:20;;;;;;;3.73;1.60;;;;;;;;;;5006586;28;20427;-74
2021/06/16 14:41:46;;;;;;;2.03;1.47;;;;;;;;;;5010544;28;20455;-69
2021/06/16 14:44:12;;;;;;;3.33;1.87;;;;;;;;;;5010443;28;20801;-70
2021/06/16 14:46:38;;;;;;;6.07;1.67;;;;;;;;;;5011165;28;20920;-69